St. Margarethen - Festspielgelnde
Wetterdaten: aktuell Sonntag, 17.02.2019 14:38
Datum Zeit Temp. A. Feuchte A. Regen Wind Richtung Richtung Taupunkt Windchill Windben
17.02.2019 14:38 8,7 C 69 % 0,0 l/m 0,0 km/h (0 Bft) O-NO 77 3,3 C 8,7 C 0,0 km/h (0 Bft)
17.02.2019 13:38 7,6 C 74 % 0,0 l/m 0,0 km/h (0 Bft) NO 43 3,3 C 7,6 C 0,0 km/h (0 Bft)
17.02.2019 12:38 6,4 C 78 % 0,0 l/m 4,0 km/h (1 Bft) O-NO 65 2,8 C 6,4 C 9,7 km/h (2 Bft)
17.02.2019 11:38 5,2 C 82 % 0,0 l/m 0,0 km/h (0 Bft) O-NO 57 2,4 C 5,2 C 0,0 km/h (0 Bft)
17.02.2019 10:38 4,0 C 88 % 0,0 l/m 0,0 km/h (0 Bft) NO 53 2,2 C 4,0 C 0,0 km/h (0 Bft)
17.02.2019 09:38 3,2 C 88 % 0,0 l/m 0,0 km/h (0 Bft) O-NO 75 1,4 C 3,2 C 0,0 km/h (0 Bft)
17.02.2019 08:38 -0,4 C 92 % 0,0 l/m 0,0 km/h (0 Bft) W 281 -1,5 C -0,4 C 0,0 km/h (0 Bft)
17.02.2019 07:37 -0,3 C 90 % 0,0 l/m 1,0 km/h (0 Bft) W-NW 300 -1,7 C -0,3 C 3,2 km/h (1 Bft)
17.02.2019 06:37 -0,7 C 94 % 0,0 l/m 0,0 km/h (0 Bft) W-NW 285 -1,5 C -0,7 C 0,0 km/h (0 Bft)
17.02.2019 05:37 -0,2 C 93 % 0,0 l/m 0,0 km/h (0 Bft) NW 311 -1,2 C -0,2 C 0,0 km/h (0 Bft)
17.02.2019 04:37 -1,1 C 92 % 0,0 l/m 0,0 km/h (0 Bft) W 269 -2,2 C -1,1 C 0,0 km/h (0 Bft)
17.02.2019 03:37 -0,1 C 89 % 0,0 l/m 0,0 km/h (0 Bft) W 267 -1,7 C -0,1 C 0,0 km/h (0 Bft)
17.02.2019 02:37 1,4 C 88 % 0,0 l/m 0,0 km/h (0 Bft) NO 47 -0,4 C 1,4 C 0,0 km/h (0 Bft)
17.02.2019 01:37 1,9 C 84 % 0,0 l/m 0,0 km/h (0 Bft) W-SW 253 -0,5 C 1,9 C 0,0 km/h (0 Bft)
17.02.2019 00:37 2,0 C 81 % 0,0 l/m 0,0 km/h (0 Bft) W-NW 283 -0,9 C 2,0 C 0,0 km/h (0 Bft)
16.02.2019 23:37 4,9 C 76 % 0,0 l/m 0,0 km/h (0 Bft) W-NW 284 1,0 C 4,9 C 0,0 km/h (0 Bft)
16.02.2019 22:37 4,2 C 79 % 0,0 l/m 0,0 km/h (0 Bft) W 278 0,9 C 4,2 C 0,0 km/h (0 Bft)
16.02.2019 21:37 4,7 C 75 % 0,0 l/m 0,0 km/h (0 Bft) W-NW 283 0,7 C 4,7 C 0,0 km/h (0 Bft)
16.02.2019 20:37 5,5 C 74 % 0,0 l/m 0,0 km/h (0 Bft) NO 54 1,2 C 5,5 C 0,0 km/h (0 Bft)
16.02.2019 19:37 7,3 C 68 % 0,0 l/m 0,0 km/h (0 Bft) NO 54 1,8 C 7,3 C 0,0 km/h (0 Bft)
16.02.2019 18:37 8,7 C 64 % 0,0 l/m 0,0 km/h (0 Bft) NO 54 2,3 C 8,7 C 0,0 km/h (0 Bft)
16.02.2019 17:37 8,8 C 63 % 0,0 l/m 0,0 km/h (0 Bft) NO 43 2,2 C 8,8 C 0,0 km/h (0 Bft)
16.02.2019 16:37 9,8 C 59 % 0,0 l/m 2,5 km/h (1 Bft) NO 56 2,2 C 9,8 C 3,2 km/h (1 Bft)
16.02.2019 15:37 10,5 C 56 % 0,0 l/m 2,3 km/h (1 Bft) O-NO 63 2,1 C 10,5 C 3,2 km/h (1 Bft)
16.02.2019 15:00 10,7 C 55 % 0,0 l/m 2,3 km/h (1 Bft) O-NO 63 2,0 C 10,7 C 4,8 km/h (1 Bft)
_ Min-Zeit 05:57 15:00 - 17:27 - - 05:57 05:57 17:27
Minimum _ -1,7 C 55 % - 0,0 km/h (0 Bft) - - -2,8 C -1,7 C 0,0 km/h (0 Bft)
_ Max-Zeit 15:03 05:05 15:00 12:42 - - 14:19 15:10 12:26
Maximum _ 10,8 C 94 % 0,0 l/m 8,8 km/h
O-NO (2 Bft)
- - 3,6 C 10,8 C 11,3 km/h
O-NO (2 Bft)
Durchschnitt _ 4,7 C 77 % #0,0 l/m 0,6 km/h (0 Bft) O-NO - 0,8 C 4,7 C 1,3 km/h (1 Bft)